Get Adobe Flash player

Seitennavigation

Webcam Flugfeld LOAR

 Dankeschön!

 

Wir bedanken uns sehr herzlich bei allen,
die uns an den letzen zwei Tagen besucht haben
und uns damit ihre Verbundenheit mit dem
was wir sind und mit dem was wir machen
gezeigt haben! Danke!

 

Genauso bedanken wir uns bei unseren Vereins-
mitgliedern und ihren Angehörigen bzw. allen
die dazu beigetragen haben damit dieses
Fest stattfinden konnte.
Es wurden hier tolle Leistungen von jedem
einzelnen erbracht.


Fotos unseres Festes online!

 
Samstag 3.9.                Sonntag 4.9.


 

Gäste online

Aktuell sind 3 Gäste und keine Mitglieder online

Sonnenaufgang Sonnenuntergang

Wed 28 Sep
Sunrise 06:47
Sunset 18:38

Aviation WX

[Quelle: ADDS]
METAR
LOWW 280250Z 18003KT 150V220 CAVOK 09/08 Q1028 NOSIG =
TAF
LOWW 272315Z 2800/2906 VRB02KT CAVOK TX24/2812Z TN10/2803Z TEMPO 2803/2807 5000 BR MIFG NSC PROB30 TEMPO 2803/2807 1200 BCFG BECMG 2807/2809 27007KT 9999 FEW050 SCT300 BECMG 2814/2816 CAVOK TEMPO 2902/2906 5000 BR MIFG NSC =